Time;durP1;ratioP1;P1;durP2;ratioP2;P2;SDS_P1;SDS_P2;PMS_P1;PMS_P2;Temp;Humidity;BMP_temperature;BMP_pressure;BME280_temperature;BME280_humidity;BME280_pressure;Samples;Min_cycle;Max_cycle;Signal;HPM_P1;HPM_P2
2022/01/28 00:00:29;;;;;;;13.75;5.40;;;12.70;91.20;;;;;;5192252;28;20061;-30
2022/01/28 00:03:17;;;;;;;15.00;6.50;;;12.70;91.10;;;;;;5207210;28;20045;-30
2022/01/28 00:05:48;;;;;;;11.83;4.53;;;12.70;91.20;;;;;;5206792;28;20060;-33
2022/01/28 00:08:20;;;;;;;12.40;6.13;;;12.70;91.30;;;;;;5207194;28;20049;-30
2022/01/28 00:10:52;;;;;;;12.63;4.63;;;12.60;91.20;;;;;;5206591;28;20507;-35
2022/01/28 00:13:28;;;;;;;10.20;4.20;;;12.60;91.30;;;;;;5206735;28;20553;-32
2022/01/28 00:38:53;;;;;;;10.20;6.03;;;12.40;91.20;;;;;;5165486;28;20054;-33
2022/01/28 00:41:24;;;;;;;17.47;9.70;;;12.50;91.20;;;;;;5165349;28;20424;-31
2022/01/28 00:44:03;;;;;;;25.87;9.03;;;12.40;91.30;;;;;;5165266;28;20054;-33
2022/01/28 00:46:34;;;;;;;20.20;7.37;;;12.40;91.30;;;;;;5149337;28;20050;-32
2022/01/28 00:49:05;;;;;;;12.17;5.00;;;12.40;91.50;;;;;;5165302;28;20058;-31
2022/01/28 00:51:36;;;;;;;11.37;4.40;;;12.40;91.50;;;;;;5165025;28;20054;-33
2022/01/28 00:54:07;;;;;;;10.43;4.87;;;12.40;91.60;;;;;;5164990;28;20046;-33
2022/01/28 00:56:38;;;;;;;13.70;5.77;;;12.40;91.80;;;;;;5226725;28;20056;-30
2022/01/28 00:59:11;;;;;;;13.13;4.80;;;12.40;91.90;;;;;;5228535;28;20047;-33
2022/01/28 01:01:42;;;;;;;6.82;3.10;;;12.30;92.00;;;;;;5227329;28;20052;-30
2022/01/28 01:04:13;;;;;;;9.53;3.43;;;12.30;92.10;;;;;;5229071;28;20087;-31
2022/01/28 01:06:44;;;;;;;7.70;2.77;;;12.10;92.40;;;;;;5227868;28;20054;-31
2022/01/28 01:09:15;;;;;;;6.57;2.13;;;12.10;92.60;;;;;;5228362;28;20128;-30
2022/01/28 01:11:46;;;;;;;7.83;2.80;;;12.10;92.70;;;;;;5228135;28;20451;-30
2022/01/28 01:14:18;;;;;;;7.60;2.83;;;12.10;92.70;;;;;;5228301;28;20071;-32
2022/01/28 01:19:37;;;;;;;6.45;2.95;;;12.10;92.90;;;;;;5228583;28;20048;-31
2022/01/28 01:22:09;;;;;;;7.60;2.90;;;12.10;92.80;;;;;;5227525;28;20044;-33
2022/01/28 01:24:49;;;;;;;6.87;2.63;;;12.10;92.80;;;;;;5228120;28;20045;-30
2022/01/28 01:27:21;;;;;;;6.40;2.97;;;12.10;92.90;;;;;;5227795;28;20094;-30
2022/01/28 01:29:52;;;;;;;7.07;3.20;;;12.20;92.90;;;;;;5228104;28;20471;-31
2022/01/28 01:32:23;;;;;;;8.63;5.10;;;12.10;92.90;;;;;;5227960;28;20052;-32
2022/01/28 01:34:54;;;;;;;6.63;2.70;;;12.10;92.90;;;;;;5227906;28;20055;-30
2022/01/28 01:37:25;;;;;;;6.40;3.57;;;12.10;93.10;;;;;;5227762;28;20487;-34
2022/01/28 01:39:57;;;;;;;15.90;11.50;;;12.10;93.20;;;;;;5228311;28;20980;-32
2022/01/28 01:42:45;;;;;;;34.40;13.27;;;12.10;93.10;;;;;;5228066;28;20091;-30
2022/01/28 01:53:26;;;;;;;11.50;5.57;;;12.10;93.20;;;;;;5228193;28;20037;-29
2022/01/28 01:55:57;;;;;;;9.70;3.27;;;12.10;93.10;;;;;;5227706;28;20048;-32
2022/01/28 01:58:31;;;;;;;7.37;2.93;;;12.00;93.30;;;;;;5227791;28;20103;-32
2022/01/28 02:01:02;;;;;;;5.73;2.70;;;12.00;93.20;;;;;;5227820;28;20045;-35
2022/01/28 02:03:33;;;;;;;5.93;2.23;;;12.00;93.20;;;;;;5227744;28;20395;-31
2022/01/28 02:06:04;;;;;;;3.73;1.40;;;12.00;93.30;;;;;;5227824;28;20103;-30
2022/01/28 02:08:35;;;;;;;4.60;2.50;;;12.10;93.30;;;;;;5227780;28;20434;-31
2022/01/28 02:11:06;;;;;;;6.63;3.10;;;12.10;93.30;;;;;;5227535;28;20084;-30
2022/01/28 02:13:38;;;;;;;3.77;1.80;;;12.00;93.30;;;;;;5228448;28;20521;-33
2022/01/28 02:16:09;;;;;;;4.20;1.90;;;12.00;93.30;;;;;;5227364;28;20098;-30
2022/01/28 02:18:40;;;;;;;3.50;1.87;;;12.10;93.40;;;;;;5226311;28;20049;-30
2022/01/28 02:21:14;;;;;;;4.27;1.73;;;12.10;93.40;;;;;;5227556;28;20049;-34
2022/01/28 02:23:49;;;;;;;3.20;1.40;;;12.10;93.40;;;;;;5226382;28;20053;-31
2022/01/28 02:26:21;;;;;;;2.17;1.10;;;12.00;93.40;;;;;;5228056;28;20066;-32
2022/01/28 02:28:55;;;;;;;3.07;1.20;;;12.00;93.40;;;;;;5227661;28;20479;-33
2022/01/28 02:31:28;;;;;;;2.63;1.20;;;12.10;93.50;;;;;;5227513;28;20049;-30
2022/01/28 02:33:59;;;;;;;3.00;1.40;;;12.00;93.60;;;;;;5227332;28;20053;-32
2022/01/28 02:36:31;;;;;;;4.60;2.40;;;12.00;93.40;;;;;;5227196;28;20060;-30
2022/01/28 02:39:03;;;;;;;5.50;2.93;;;12.10;93.40;;;;;;5229000;28;20041;-31
2022/01/28 02:41:38;;;;;;;4.20;2.17;;;12.10;93.40;;;;;;5230070;28;20045;-34
2022/01/28 02:44:19;;;;;;;4.27;2.00;;;12.10;93.30;;;;;;5229560;28;20053;-30
2022/01/28 02:46:57;;;;;;;6.27;3.60;;;12.20;93.30;;;;;;5231477;28;20479;-29
2022/01/28 02:49:34;;;;;;;10.33;2.90;;;12.20;93.30;;;;;;5231054;28;20479;-29
2022/01/28 02:52:05;;;;;;;2.73;1.30;;;12.10;93.40;;;;;;5231309;28;20100;-31
2022/01/28 02:54:45;;;;;;;3.73;1.60;;;12.00;93.40;;;;;;5231032;28;20041;-32
2022/01/28 02:57:23;;;;;;;4.80;2.10;;;12.00;93.40;;;;;;5230805;28;20059;-31
2022/01/28 02:59:54;;;;;;;3.27;1.20;;;12.10;93.50;;;;;;5230079;28;20442;-30
2022/01/28 03:02:25;;;;;;;3.67;1.40;;;12.00;93.50;;;;;;5231256;28;20052;-29
2022/01/28 03:05:26;;;;;;;6.13;3.23;;;12.00;93.50;;;;;;5230614;28;20049;-29
2022/01/28 03:08:13;;;;;;;6.67;4.10;;;12.00;93.50;;;;;;5231410;28;20037;-29
2022/01/28 03:13:34;;;;;;;3.42;1.67;;;12.00;93.40;;;;;;5231335;28;20048;-30
2022/01/28 03:16:09;;;;;;;3.07;1.50;;;12.10;93.40;;;;;;5230934;28;20049;-29
2022/01/28 03:18:56;;;;;;;2.60;1.50;;;12.10;93.50;;;;;;5230692;28;20086;-29
2022/01/28 03:24:04;;;;;;;2.40;1.20;;;12.10;93.40;;;;;;5230449;28;20091;-31
2022/01/28 03:26:35;;;;;;;1.45;0.90;;;12.10;93.40;;;;;;5230692;28;20041;-29
2022/01/28 03:29:06;;;;;;;1.87;1.30;;;12.10;93.40;;;;;;5230229;28;20049;-31
2022/01/28 03:31:38;;;;;;;2.70;1.20;;;12.10;93.40;;;;;;5230230;28;20045;-32
2022/01/28 03:34:09;;;;;;;2.17;0.77;;;12.00;93.40;;;;;;5230592;28;20511;-33
2022/01/28 03:36:40;;;;;;;2.03;1.00;;;12.00;93.40;;;;;;5230015;28;20048;-30
2022/01/28 03:39:11;;;;;;;1.87;1.10;;;12.00;93.30;;;;;;5230024;28;20045;-32
2022/01/28 03:41:42;;;;;;;3.03;1.97;;;12.10;93.40;;;;;;5230374;28;20068;-29
2022/01/28 03:44:13;;;;;;;4.07;1.67;;;12.10;93.40;;;;;;5229434;28;20048;-31
2022/01/28 03:46:44;;;;;;;5.03;1.90;;;12.10;93.40;;;;;;5229740;28;20063;-31
2022/01/28 03:49:15;;;;;;;1.93;0.90;;;12.10;93.60;;;;;;5228367;28;20075;-32
2022/01/28 03:51:46;;;;;;;5.37;2.57;;;12.00;93.50;;;;;;5230272;28;20049;-31
2022/01/28 03:54:18;;;;;;;2.60;1.27;;;12.10;93.60;;;;;;5229920;28;20056;-30
2022/01/28 03:56:48;;;;;;;2.80;1.00;;;12.10;93.50;;;;;;5230374;28;20455;-29
2022/01/28 03:59:20;;;;;;;2.00;1.20;;;12.10;93.50;;;;;;5229521;28;20049;-29
2022/01/28 04:01:51;;;;;;;3.83;1.17;;;12.10;93.50;;;;;;5229869;28;20052;-29
2022/01/28 04:12:44;;;;;;;3.17;1.47;;;12.10;93.60;;;;;;5229649;28;20041;-33
2022/01/28 04:15:35;;;;;;;3.20;1.43;;;12.00;93.60;;;;;;5229377;28;20073;-29
2022/01/28 04:18:06;;;;;;;4.27;1.40;;;12.00;93.70;;;;;;5229510;28;20041;-31
2022/01/28 04:20:37;;;;;;;4.77;1.83;;;12.00;93.80;;;;;;5229140;28;20103;-34
2022/01/28 04:23:08;;;;;;;2.53;1.27;;;12.00;93.80;;;;;;5229427;28;20445;-28
2022/01/28 04:25:39;;;;;;;3.67;1.33;;;12.00;93.90;;;;;;5229369;28;20107;-32
2022/01/28 04:28:10;;;;;;;3.00;1.40;;;12.00;93.90;;;;;;5229056;28;20112;-29
2022/01/28 04:30:41;;;;;;;3.47;1.20;;;12.00;93.90;;;;;;5229108;28;20044;-30
2022/01/28 04:33:12;;;;;;;3.37;1.20;;;12.00;94.00;;;;;;5229164;28;20051;-29
2022/01/28 04:35:46;;;;;;;3.77;1.40;;;12.00;94.00;;;;;;5229098;28;20069;-33
2022/01/28 04:38:30;;;;;;;2.83;1.30;;;12.00;94.00;;;;;;5229386;28;20036;-29
2022/01/28 04:41:20;;;;;;;5.43;1.43;;;12.00;94.00;;;;;;5229552;28;20386;-28
2022/01/28 04:43:58;;;;;;;3.13;0.90;;;11.90;94.00;;;;;;5229318;28;20055;-31
2022/01/28 04:46:41;;;;;;;3.03;1.03;;;11.90;94.20;;;;;;5229022;28;20103;-33
2022/01/28 04:49:27;;;;;;;3.58;1.20;;;11.90;94.30;;;;;;5229162;28;20045;-29
2022/01/28 04:52:30;;;;;;;4.13;1.27;;;11.90;94.30;;;;;;5229211;28;20052;-30
2022/01/28 05:27:44;;;;;;;6.30;1.30;;;11.60;94.50;;;;;;5185389;28;20065;-29
2022/01/28 05:30:15;;;;;;;3.70;1.70;;;11.70;94.50;;;;;;5171135;28;20058;-29
2022/01/28 05:32:46;;;;;;;4.53;2.03;;;11.70;94.40;;;;;;5184719;28;20058;-35
2022/01/28 05:35:17;;;;;;;4.17;1.60;;;11.80;94.50;;;;;;5185131;28;20046;-31
2022/01/28 05:37:48;;;;;;;4.27;2.23;;;11.70;94.50;;;;;;5184835;28;20443;-36
2022/01/28 05:40:19;;;;;;;5.07;2.33;;;11.60;94.60;;;;;;5166742;28;20131;-36
2022/01/28 05:42:49;;;;;;;3.80;2.03;;;11.50;94.70;;;;;;5227976;28;20140;-35
2022/01/28 05:45:21;;;;;;;3.70;2.03;;;11.50;94.80;;;;;;5227903;28;20044;-29
2022/01/28 05:47:52;;;;;;;4.77;1.80;;;11.50;94.80;;;;;;5224446;28;20130;-36
2022/01/28 05:50:23;;;;;;;4.60;1.47;;;11.40;94.90;;;;;;5228769;28;20160;-30
2022/01/28 05:52:54;;;;;;;2.73;1.60;;;11.50;94.90;;;;;;5225254;28;20521;-32
2022/01/28 05:55:25;;;;;;;6.37;2.17;;;11.60;94.80;;;;;;5225217;28;20064;-31
2022/01/28 05:57:56;;;;;;;4.37;1.80;;;11.50;94.90;;;;;;5231000;28;20044;-30
2022/01/28 06:00:27;;;;;;;6.97;2.83;;;11.40;94.90;;;;;;5224127;28;20497;-31
2022/01/28 06:02:58;;;;;;;3.90;1.87;;;11.40;94.80;;;;;;5225329;28;20041;-32
2022/01/28 06:05:30;;;;;;;4.13;1.77;;;11.50;94.70;;;;;;5225206;28;20061;-31
2022/01/28 06:08:01;;;;;;;3.10;1.17;;;11.50;94.70;;;;;;5225170;28;20036;-30
2022/01/28 06:10:32;;;;;;;4.10;1.50;;;11.50;94.70;;;;;;5225236;28;20498;-30
2022/01/28 06:13:05;;;;;;;4.37;2.00;;;11.40;94.70;;;;;;5227189;28;20052;-30
2022/01/28 06:15:39;;;;;;;4.85;2.35;;;11.40;94.80;;;;;;5229483;28;20075;-36
2022/01/28 06:18:10;;;;;;;5.30;2.23;;;11.40;94.70;;;;;;5229503;28;20137;-30
2022/01/28 06:20:43;;;;;;;5.37;2.47;;;11.50;94.70;;;;;;5226610;28;20045;-29
2022/01/28 06:23:14;;;;;;;8.82;6.25;;;11.50;94.70;;;;;;5227880;28;20067;-32
2022/01/28 06:25:47;;;;;;;8.20;5.20;;;11.40;94.80;;;;;;5229055;28;20053;-32
2022/01/28 06:28:18;;;;;;;8.17;5.33;;;11.40;94.90;;;;;;5228893;28;20048;-30
2022/01/28 06:30:49;;;;;;;6.67;4.07;;;11.50;94.70;;;;;;5229063;28;20049;-32
2022/01/28 06:33:20;;;;;;;5.20;2.50;;;11.60;94.50;;;;;;5228782;28;20048;-31
2022/01/28 06:35:51;;;;;;;6.70;2.87;;;11.70;94.60;;;;;;5229183;28;20041;-30
2022/01/28 06:38:22;;;;;;;5.53;2.23;;;11.70;94.50;;;;;;5231025;28;20044;-34
2022/01/28 06:40:54;;;;;;;4.17;2.00;;;11.70;94.40;;;;;;5231115;28;20072;-32
2022/01/28 06:43:24;;;;;;;4.17;2.30;;;11.80;94.40;;;;;;5230419;28;20118;-29
2022/01/28 06:45:56;;;;;;;4.83;1.90;;;11.80;94.30;;;;;;5229950;28;20122;-33
2022/01/28 06:48:26;;;;;;;6.40;2.87;;;11.90;94.20;;;;;;5230805;28;20076;-34
2022/01/28 06:50:58;;;;;;;8.37;3.20;;;11.90;94.10;;;;;;5230700;28;20450;-35
2022/01/28 06:53:30;;;;;;;5.63;2.87;;;12.00;94.10;;;;;;5231157;28;20049;-31
2022/01/28 06:56:01;;;;;;;8.27;4.10;;;12.10;93.80;;;;;;5231123;28;20471;-36
2022/01/28 06:58:32;;;;;;;7.27;3.67;;;12.10;93.70;;;;;;5230937;28;20056;-33
2022/01/28 07:01:03;;;;;;;4.43;2.27;;;12.00;93.70;;;;;;5222822;28;20033;-30
2022/01/28 07:03:34;;;;;;;4.37;2.50;;;12.10;93.50;;;;;;5228768;28;20056;-34
2022/01/28 07:06:05;;;;;;;5.10;2.73;;;12.20;93.60;;;;;;5228446;28;20050;-32
2022/01/28 07:08:38;;;;;;;4.63;2.47;;;12.20;93.30;;;;;;5229148;28;20060;-32
2022/01/28 07:11:09;;;;;;;4.20;2.25;;;12.20;93.20;;;;;;5228332;28;20052;-36
2022/01/28 07:13:40;;;;;;;4.53;2.17;;;12.30;93.30;;;;;;5210736;28;20048;-33
2022/01/28 07:16:11;;;;;;;4.80;2.40;;;12.30;93.10;;;;;;5228456;28;20045;-32
2022/01/28 07:18:42;;;;;;;3.57;1.50;;;12.30;93.10;;;;;;5228550;28;20052;-33
2022/01/28 07:21:13;;;;;;;4.27;1.87;;;12.30;92.90;;;;;;5226786;28;20060;-30
2022/01/28 07:23:45;;;;;;;4.63;1.90;;;12.30;93.00;;;;;;5227971;28;20049;-30
2022/01/28 07:26:16;;;;;;;2.95;1.48;;;12.20;92.90;;;;;;5227861;28;20060;-30
2022/01/28 07:28:49;;;;;;;4.20;2.00;;;12.30;92.80;;;;;;5228024;28;20418;-36
2022/01/28 07:31:21;;;;;;;4.75;2.67;;;12.30;92.70;;;;;;5227924;28;20522;-40
2022/01/28 07:33:52;;;;;;;4.17;2.20;;;12.20;92.70;;;;;;5227938;28;20494;-32
2022/01/28 07:36:23;;;;;;;4.20;1.77;;;12.20;92.80;;;;;;5226522;28;20049;-36
2022/01/28 07:38:54;;;;;;;4.70;2.17;;;12.20;92.80;;;;;;5228239;28;20094;-34
2022/01/28 07:41:26;;;;;;;4.07;1.70;;;12.20;92.80;;;;;;5226685;28;20057;-32
2022/01/28 07:43:57;;;;;;;4.70;2.70;;;12.20;92.80;;;;;;5226723;28;20052;-33
2022/01/28 07:46:29;;;;;;;3.77;2.10;;;12.30;92.70;;;;;;5227500;28;20053;-32
2022/01/28 07:49:00;;;;;;;3.83;2.10;;;12.50;92.80;;;;;;5228051;28;20037;-35
2022/01/28 07:51:31;;;;;;;5.67;2.20;;;12.60;92.30;;;;;;5227392;28;20099;-31
2022/01/28 07:54:03;;;;;;;8.77;7.97;;;12.70;92.20;;;;;;5227833;28;20045;-32
2022/01/28 07:56:34;;;;;;;4.93;2.80;;;12.80;92.00;;;;;;5226318;28;20397;-36
2022/01/28 07:59:05;;;;;;;3.70;2.13;;;12.80;91.90;;;;;;5227612;28;20060;-30
2022/01/28 08:01:36;;;;;;;3.60;2.03;;;12.70;91.80;;;;;;5226481;28;20079;-32
2022/01/28 08:04:07;;;;;;;4.13;2.57;;;12.80;91.70;;;;;;5225939;28;20072;-29
2022/01/28 08:06:38;;;;;;;2.87;2.00;;;12.90;91.70;;;;;;5225553;28;20091;-36
2022/01/28 08:09:09;;;;;;;4.53;1.93;;;12.90;91.80;;;;;;5225283;28;20076;-30
2022/01/28 08:11:40;;;;;;;3.17;2.00;;;13.00;91.50;;;;;;5225601;28;20186;-30
2022/01/28 08:14:11;;;;;;;2.30;1.70;;;13.00;91.40;;;;;;5227453;28;20045;-32
2022/01/28 08:16:42;;;;;;;3.77;2.13;;;13.00;91.50;;;;;;5227170;28;20045;-31
2022/01/28 08:19:13;;;;;;;3.50;2.50;;;13.10;91.30;;;;;;5227068;28;20075;-29
2022/01/28 08:21:44;;;;;;;4.73;3.17;;;12.90;91.20;;;;;;5226910;28;20064;-28
2022/01/28 08:24:15;;;;;;;2.67;1.80;;;11.60;92.60;;;;;;5225849;28;20049;-30
2022/01/28 08:26:46;;;;;;;2.63;1.67;;;10.80;93.70;;;;;;5226973;28;20056;-31
2022/01/28 08:29:17;;;;;;;;;;;10.40;93.90;;;;;;5226147;28;20075;-32
2022/01/28 08:31:49;;;;;;;3.63;1.67;;;10.10;94.20;;;;;;5226931;28;19921;-32
2022/01/28 08:34:20;;;;;;;5.37;2.63;;;10.00;94.70;;;;;;5225196;28;20106;-32
2022/01/28 08:36:51;;;;;;;4.23;2.60;;;9.90;94.50;;;;;;5225936;28;20411;-31
2022/01/28 08:39:24;;;;;;;5.10;2.80;;;9.80;94.60;;;;;;5226803;28;20041;-29
2022/01/28 08:41:55;;;;;;;3.40;2.67;;;9.80;94.90;;;;;;5225634;28;20049;-32
2022/01/28 08:44:27;;;;;;;3.67;1.70;;;9.80;94.80;;;;;;5226525;28;20041;-32
2022/01/28 08:46:58;;;;;;;2.93;2.03;;;9.70;94.70;;;;;;5226459;28;20103;-29
2022/01/28 08:49:29;;;;;;;2.77;1.97;;;9.70;94.80;;;;;;5226319;28;20080;-34
2022/01/28 08:52:03;;;;;;;3.60;2.50;;;9.70;95.00;;;;;;5226577;28;20041;-30
2022/01/28 08:54:42;;;;;;;5.47;3.30;;;9.70;94.80;;;;;;5226466;28;20069;-31
2022/01/28 08:57:13;;;;;;;5.10;3.07;;;9.60;95.10;;;;;;5226233;28;20129;-31
2022/01/28 08:59:47;;;;;;;4.90;2.70;;;9.70;94.80;;;;;;5226463;28;20120;-30
2022/01/28 09:02:18;;;;;;;3.30;1.77;;;9.60;94.80;;;;;;5225094;28;20072;-29
2022/01/28 09:04:49;;;;;;;2.50;1.70;;;9.60;94.30;;;;;;5226214;28;20134;-34
2022/01/28 09:07:20;;;;;;;3.27;2.27;;;9.50;94.40;;;;;;5226245;28;20080;-30
2022/01/28 09:09:52;;;;;;;5.57;3.53;;;9.60;94.80;;;;;;5225952;28;20084;-29
2022/01/28 09:12:39;;;;;;;5.43;3.17;;;9.60;94.60;;;;;;5226300;28;20127;-31
2022/01/28 09:15:10;;;;;;;2.73;1.77;;;9.50;94.70;;;;;;5226172;28;20045;-31
2022/01/28 09:17:42;;;;;;;2.87;1.70;;;9.50;94.20;;;;;;5225755;28;20056;-30
2022/01/28 09:20:12;;;;;;;6.17;2.80;;;9.50;94.30;;;;;;5225932;28;20490;-30
2022/01/28 09:22:43;;;;;;;4.23;2.80;;;9.50;94.70;;;;;;5225858;28;20545;-30
2022/01/28 09:25:15;;;;;;;5.27;2.93;;;9.40;94.10;;;;;;5226086;28;20053;-33
2022/01/28 09:27:46;;;;;;;3.50;2.37;;;9.50;94.10;;;;;;5225687;28;20485;-34
2022/01/28 09:30:17;;;;;;;7.70;4.37;;;9.40;94.30;;;;;;5225705;28;20069;-29
2022/01/28 09:32:48;;;;;;;9.77;6.33;;;9.40;94.10;;;;;;5225518;28;20041;-29
2022/01/28 09:35:19;;;;;;;16.93;9.10;;;9.40;94.20;;;;;;5225772;28;20494;-28
2022/01/28 09:37:51;;;;;;;19.10;10.80;;;9.40;94.40;;;;;;5225691;28;20049;-32
2022/01/28 09:40:22;;;;;;;61.60;35.30;;;9.40;94.20;;;;;;5225623;28;20045;-29
2022/01/28 09:42:54;;;;;;;19.53;10.30;;;9.40;94.40;;;;;;5225273;28;20044;-31
2022/01/28 09:45:25;;;;;;;2.40;1.77;;;9.40;94.00;;;;;;5224412;28;20129;-32
2022/01/28 09:47:56;;;;;;;3.60;2.80;;;9.40;93.70;;;;;;5225058;28;20047;-30
2022/01/28 09:50:29;;;;;;;3.20;2.20;;;9.40;93.90;;;;;;5239930;28;20491;-29
2022/01/28 09:53:00;;;;;;;3.80;2.58;;;9.60;94.10;;;;;;5225504;28;20049;-30
2022/01/28 09:55:31;;;;;;;4.57;3.27;;;10.00;93.50;;;;;;5225635;28;20049;-29
2022/01/28 09:58:03;;;;;;;6.10;3.83;;;10.40;92.90;;;;;;5224184;28;20051;-31
2022/01/28 10:00:34;;;;;;;3.13;2.07;;;10.60;92.60;;;;;;5209205;28;20045;-34
2022/01/28 10:03:06;;;;;;;3.63;1.97;;;10.80;92.30;;;;;;5227805;28;20064;-31
2022/01/28 10:05:39;;;;;;;6.45;3.47;;;11.10;92.00;;;;;;5227834;28;20048;-32
2022/01/28 10:08:14;;;;;;;4.32;2.85;;;11.20;91.80;;;;;;5227653;28;20056;-31
2022/01/28 10:10:53;;;;;;;6.17;3.23;;;11.30;91.50;;;;;;5228520;28;20387;-30
2022/01/28 10:16:13;;;;;;;7.30;4.67;;;11.40;91.20;;;;;;5227741;28;20045;-30
2022/01/28 10:18:46;;;;;;;5.63;2.73;;;11.50;91.10;;;;;;5226494;28;20123;-32
2022/01/28 10:21:43;;;;;;;6.88;3.40;;;11.60;90.90;;;;;;5227638;28;20083;-34
2022/01/28 10:24:24;;;;;;;4.50;2.30;;;11.70;90.70;;;;;;5227988;28;20543;-31
2022/01/28 10:26:56;;;;;;;4.47;2.43;;;11.70;90.70;;;;;;5227278;28;20387;-31
2022/01/28 10:29:28;;;;;;;3.57;1.90;;;11.70;90.60;;;;;;5227350;28;20051;-31
2022/01/28 10:31:59;;;;;;;3.67;2.40;;;11.80;90.70;;;;;;5227512;28;20505;-30
2022/01/28 10:34:40;;;;;;;6.40;3.37;;;11.90;90.60;;;;;;5227517;28;20052;-30
2022/01/28 10:37:22;;;;;;;4.67;2.50;;;12.00;90.50;;;;;;5227025;28;20045;-31
2022/01/28 10:40:13;;;;;;;22.13;5.77;;;12.00;90.60;;;;;;5226088;28;20041;-30
2022/01/28 10:42:52;;;;;;;3.10;1.90;;;12.00;90.60;;;;;;5228178;28;20482;-31
2022/01/28 10:45:28;;;;;;;3.87;1.73;;;12.00;90.50;;;;;;5226192;28;20136;-30
2022/01/28 10:47:59;;;;;;;5.13;2.53;;;12.00;90.30;;;;;;5225897;28;20084;-31
2022/01/28 10:50:34;;;;;;;5.17;2.40;;;12.00;90.20;;;;;;5209407;28;20064;-30
2022/01/28 10:53:11;;;;;;;4.37;2.10;;;12.00;90.10;;;;;;5227250;28;20056;-31
2022/01/28 10:56:03;;;;;;;3.93;2.53;;;11.90;89.40;;;;;;5227120;28;20041;-30
2022/01/28 10:58:53;;;;;;;5.93;3.23;;;11.90;89.50;;;;;;5226247;28;20491;-30
2022/01/28 11:01:41;;;;;;;5.57;3.27;;;12.00;89.50;;;;;;5230366;28;20045;-29
2022/01/28 11:04:14;;;;;;;3.93;1.90;;;12.10;89.50;;;;;;5231490;28;20047;-31
2022/01/28 11:06:47;;;;;;;4.38;2.38;;;12.10;89.70;;;;;;5228953;28;20052;-36
2022/01/28 11:09:20;;;;;;;4.30;2.05;;;12.00;88.90;;;;;;5212190;28;20395;-35
2022/01/28 11:11:51;;;;;;;5.00;2.42;;;12.00;88.70;;;;;;5210015;28;20430;-31
2022/01/28 11:14:22;;;;;;;2.57;1.53;;;12.10;88.70;;;;;;5210270;28;20045;-32
2022/01/28 11:16:54;;;;;;;2.60;1.30;;;12.10;88.90;;;;;;5209957;28;20049;-34
2022/01/28 11:19:27;;;;;;;2.53;1.47;;;12.10;88.90;;;;;;5224928;28;20104;-33
2022/01/28 11:22:09;;;;;;;3.78;2.17;;;12.10;88.50;;;;;;5176494;28;20073;-30
2022/01/28 11:25:11;;;;;;;4.57;2.30;;;12.10;88.70;;;;;;5209237;28;20045;-33
2022/01/28 11:27:42;;;;;;;5.43;3.17;;;12.10;89.30;;;;;;5210250;28;21004;-37
2022/01/28 11:30:22;;;;;;;5.77;3.33;;;12.10;88.60;;;;;;5201444;28;20045;-34
2022/01/28 11:33:00;;;;;;;4.33;1.80;;;12.10;88.50;;;;;;5208656;28;20064;-34
2022/01/28 11:35:39;;;;;;;3.77;1.70;;;12.00;88.70;;;;;;5209697;28;20041;-31
2022/01/28 11:38:28;;;;;;;4.33;2.30;;;12.00;89.70;;;;;;5209043;28;20408;-37
2022/01/28 11:41:00;;;;;;;7.33;3.30;;;12.00;90.00;;;;;;5209441;28;20061;-31
2022/01/28 11:43:32;;;;;;;7.22;3.75;;;12.10;90.20;;;;;;5208343;28;20050;-29
2022/01/28 11:46:38;;;;;;;6.63;3.53;;;12.10;90.10;;;;;;5209482;28;20110;-39
2022/01/28 11:49:10;;;;;;;6.73;4.20;;;12.10;90.00;;;;;;5209721;28;20474;-32
2022/01/28 11:51:41;;;;;;;5.73;3.53;;;12.20;89.90;;;;;;5207917;28;20499;-35
2022/01/28 11:54:14;;;;;;;3.83;2.43;;;12.10;89.90;;;;;;5209077;28;20053;-34
2022/01/28 11:56:57;;;;;;;3.33;1.95;;;12.00;90.20;;;;;;5208410;28;20048;-32
2022/01/28 11:59:29;;;;;;;3.70;1.80;;;12.00;90.30;;;;;;5209344;28;20045;-33
2022/01/28 12:02:00;;;;;;;4.20;2.10;;;12.00;90.40;;;;;;5208903;28;20068;-35
2022/01/28 12:04:32;;;;;;;3.37;1.77;;;12.00;90.10;;;;;;5209066;28;20068;-35
2022/01/28 12:07:09;;;;;;;4.50;3.27;;;12.00;89.50;;;;;;5211158;28;20042;-35
2022/01/28 12:09:46;;;;;;;4.67;2.53;;;11.90;88.80;;;;;;5214496;28;20068;-37
2022/01/28 12:12:55;;;;;;;3.43;1.90;;;11.90;88.60;;;;;;5213599;28;20399;-38
2022/01/28 12:15:29;;;;;;;8.43;4.50;;;12.00;87.80;;;;;;5208846;28;20053;-36
2022/01/28 12:18:10;;;;;;;7.65;4.57;;;12.00;87.70;;;;;;5191309;28;20049;-32
2022/01/28 12:20:46;;;;;;;5.40;2.90;;;11.90;87.80;;;;;;5207707;28;20445;-33
2022/01/28 12:23:17;;;;;;;6.60;3.90;;;12.00;88.20;;;;;;5208534;28;20167;-34
2022/01/28 12:25:53;;;;;;;5.90;3.70;;;12.00;89.00;;;;;;5208400;28;20380;-40
2022/01/28 12:28:33;;;;;;;5.57;3.30;;;12.00;89.80;;;;;;5208934;28;20045;-36
2022/01/28 12:31:07;;;;;;;4.70;2.40;;;12.10;90.30;;;;;;5208179;28;20072;-37
2022/01/28 12:33:43;;;;;;;5.27;3.20;;;12.00;90.50;;;;;;5208053;28;20061;-30
2022/01/28 12:36:25;;;;;;;4.87;2.93;;;12.00;90.60;;;;;;5207482;28;20476;-29
2022/01/28 12:39:21;;;;;;;4.93;3.20;;;12.00;90.70;;;;;;5208589;28;20056;-31
2022/01/28 12:42:03;;;;;;;6.28;2.88;;;12.00;90.70;;;;;;5208394;28;20045;-32
2022/01/28 12:44:35;;;;;;;9.53;5.53;;;12.00;90.50;;;;;;5224290;28;20548;-30
2022/01/28 12:47:09;;;;;;;4.97;2.53;;;12.00;90.40;;;;;;5206839;28;20513;-38
2022/01/28 12:49:40;;;;;;;6.67;3.57;;;12.00;90.10;;;;;;5208041;28;20479;-31
2022/01/28 12:52:11;;;;;;;20.33;10.87;;;12.00;90.20;;;;;;5208363;28;20041;-31
2022/01/28 12:54:44;;;;;;;13.90;8.70;;;12.00;90.10;;;;;;5208141;28;20045;-34
2022/01/28 12:57:19;;;;;;;4.45;2.38;;;12.00;89.70;;;;;;5207941;28;20502;-30
2022/01/28 12:59:51;;;;;;;6.00;4.00;;;12.00;89.60;;;;;;5190789;28;20049;-30
2022/01/28 13:02:23;;;;;;;14.07;10.77;;;12.00;89.10;;;;;;5206824;28;20475;-35
2022/01/28 13:05:12;;;;;;;4.90;3.10;;;11.90;89.50;;;;;;5207667;28;20045;-35
2022/01/28 13:10:33;;;;;;;7.83;5.67;;;11.90;89.20;;;;;;5207070;28;20095;-36
2022/01/28 13:13:09;;;;;;;4.83;3.83;;;12.00;89.30;;;;;;5207705;28;20045;-35
2022/01/28 13:15:40;;;;;;;5.53;4.47;;;12.10;89.00;;;;;;5207751;28;20096;-36
2022/01/28 13:18:11;;;;;;;4.00;2.80;;;12.10;88.80;;;;;;5207653;28;20056;-40
2022/01/28 13:20:42;;;;;;;3.00;1.87;;;12.10;88.40;;;;;;5207525;28;20041;-31
2022/01/28 13:23:13;;;;;;;3.83;1.70;;;12.20;88.30;;;;;;5205904;28;20046;-36
2022/01/28 13:25:44;;;;;;;4.23;2.83;;;12.20;87.90;;;;;;5206532;28;20487;-34
2022/01/28 13:28:18;;;;;;;4.10;2.60;;;12.40;87.50;;;;;;5190455;28;20095;-30
2022/01/28 13:30:55;;;;;;;5.70;3.90;;;12.50;87.20;;;;;;5207610;28;20053;-30
2022/01/28 13:33:29;;;;;;;10.73;4.50;;;12.60;86.90;;;;;;5206339;28;20511;-31
2022/01/28 13:36:01;;;;;;;;;;;12.60;87.40;;;;;;5206749;28;20403;-29
2022/01/28 13:38:38;;;;;;;5.13;2.57;;;12.60;87.10;;;;;;5207417;28;19921;-33
2022/01/28 13:41:24;;;;;;;4.73;2.63;;;12.60;87.20;;;;;;5207508;28;20045;-32
2022/01/28 13:43:59;;;;;;;5.30;2.87;;;12.60;86.50;;;;;;5207116;28;20126;-33
2022/01/28 13:46:34;;;;;;;7.67;3.70;;;12.60;86.60;;;;;;5207262;28;20076;-31
2022/01/28 13:49:14;;;;;;;6.30;3.87;;;12.60;86.80;;;;;;5206764;28;20065;-30
2022/01/28 13:51:45;;;;;;;6.07;3.40;;;12.60;86.60;;;;;;5207211;28;20077;-36
2022/01/28 13:54:20;;;;;;;10.33;6.30;;;12.40;87.20;;;;;;5205672;28;20041;-31
2022/01/28 13:56:50;;;;;;;9.97;6.07;;;11.20;90.40;;;;;;5206995;28;20041;-34
2022/01/28 13:59:25;;;;;;;6.47;4.07;;;10.50;91.30;;;;;;5189502;28;20053;-30
2022/01/28 14:02:01;;;;;;;5.87;3.27;;;10.20;91.70;;;;;;5207284;28;20124;-29
2022/01/28 14:04:37;;;;;;;25.33;10.93;;;10.00;91.70;;;;;;5207038;28;20092;-28
2022/01/28 14:07:18;;;;;;;6.13;4.73;;;9.90;92.10;;;;;;5207073;28;20100;-30
2022/01/28 14:09:58;;;;;;;9.20;4.93;;;9.80;92.00;;;;;;5207456;28;20049;-29
2022/01/28 14:12:54;;;;;;;50.33;40.37;;;9.70;92.00;;;;;;5205493;28;20073;-30
2022/01/28 14:15:33;;;;;;;3.73;2.50;;;9.60;91.90;;;;;;5207338;28;20060;-28
2022/01/28 14:18:05;;;;;;;21.60;10.90;;;9.60;91.70;;;;;;5207313;28;20446;-28
2022/01/28 14:20:36;;;;;;;29.47;15.57;;;9.50;92.30;;;;;;5207287;28;20041;-29
2022/01/28 14:23:07;;;;;;;27.67;15.63;;;9.40;92.80;;;;;;5206739;28;20115;-30
2022/01/28 14:25:39;;;;;;;27.60;15.43;;;9.40;93.60;;;;;;5207132;28;20423;-30
2022/01/28 14:28:35;;;;;;;8.97;5.77;;;9.30;93.50;;;;;;5206553;28;20042;-30
2022/01/28 14:31:08;;;;;;;10.70;7.57;;;9.20;93.90;;;;;;5224163;28;20060;-38
2022/01/28 14:33:39;;;;;;;7.43;5.37;;;9.20;94.20;;;;;;5226666;28;20076;-31
2022/01/28 14:36:11;;;;;;;15.40;9.47;;;9.10;94.10;;;;;;5230916;28;20052;-38
2022/01/28 14:38:42;;;;;;;26.67;15.90;;;9.10;93.80;;;;;;5231430;28;20495;-35
2022/01/28 14:41:14;;;;;;;6.90;3.47;;;9.00;93.90;;;;;;5229966;28;20060;-39
2022/01/28 14:43:44;;;;;;;20.90;14.37;;;9.00;93.80;;;;;;5231675;28;20314;-39
2022/01/28 14:46:16;;;;;;;9.13;4.93;;;8.90;93.70;;;;;;5230880;28;20056;-34
2022/01/28 14:48:46;;;;;;;17.80;11.80;;;8.90;93.50;;;;;;5230709;28;20487;-37